Time;durP1;ratioP1;P1;durP2;ratioP2;P2;SDS_P1;SDS_P2;PMS_P1;PMS_P2;Temp;Humidity;BMP_temperature;BMP_pressure;BME280_temperature;BME280_humidity;BME280_pressure;Samples;Min_cycle;Max_cycle;Signal;HPM_P1;HPM_P2
2023/03/01 00:00:00;;;;;;;30.17;20.58;;;;;;;;;;5047305;28;20071;-76
2023/03/01 00:02:26;;;;;;;30.52;20.05;;;;;;;;;;5043418;28;20696;-76
2023/03/01 00:04:52;;;;;;;25.00;18.45;;;;;;;;;;5029949;28;20024;-76
2023/03/01 00:07:18;;;;;;;29.50;19.77;;;;;;;;;;5046798;28;20037;-76
2023/03/01 00:09:45;;;;;;;26.83;19.48;;;;;;;;;;5026977;28;20045;-76
2023/03/01 00:12:11;;;;;;;30.08;22.27;;;;;;;;;;5038458;28;20513;-76
2023/03/01 00:14:37;;;;;;;28.15;20.10;;;;;;;;;;5021121;28;20038;-76
2023/03/01 00:17:03;;;;;;;30.50;21.23;;;;;;;;;;5050495;28;20079;-76
2023/03/01 00:19:29;;;;;;;31.77;21.42;;;;;;;;;;5041634;28;20116;-76
2023/03/01 00:21:55;;;;;;;28.63;20.20;;;;;;;;;;5038615;28;20028;-76
2023/03/01 00:24:21;;;;;;;33.53;21.50;;;;;;;;;;5041280;28;20698;-76
2023/03/01 00:26:47;;;;;;;29.17;19.65;;;;;;;;;;5040338;28;20076;-76
2023/03/01 00:29:13;;;;;;;29.38;21.55;;;;;;;;;;5018714;28;20924;-76
2023/03/01 00:31:39;;;;;;;34.35;24.10;;;;;;;;;;5044554;28;20025;-76
2023/03/01 00:34:05;;;;;;;33.95;23.83;;;;;;;;;;5041807;28;20095;-76
2023/03/01 00:36:35;;;;;;;33.55;23.88;;;;;;;;;;5043879;28;20059;-76
2023/03/01 00:39:02;;;;;;;44.90;29.35;;;;;;;;;;5045713;28;20561;-76
2023/03/01 00:41:29;;;;;;;43.38;28.42;;;;;;;;;;5055471;28;20028;-76
2023/03/01 00:43:55;;;;;;;31.98;22.35;;;;;;;;;;5051224;28;20035;-76
2023/03/01 00:46:22;;;;;;;32.90;20.63;;;;;;;;;;5051181;28;20803;-76
2023/03/01 00:48:49;;;;;;;30.52;21.80;;;;;;;;;;5042952;28;20028;-76
2023/03/01 00:51:16;;;;;;;34.80;23.75;;;;;;;;;;5054998;28;20041;-76
2023/03/01 00:53:42;;;;;;;33.55;22.35;;;;;;;;;;5032739;28;20025;-76
2023/03/01 00:56:09;;;;;;;30.23;22.27;;;;;;;;;;5034204;28;20120;-76
2023/03/01 00:58:36;;;;;;;32.53;21.02;;;;;;;;;;5052431;28;20698;-76
2023/03/01 01:01:16;;;;;;;29.20;22.42;;;;;;;;;;5037749;28;20106;-76
2023/03/01 01:03:42;;;;;;;30.65;22.08;;;;;;;;;;5024384;28;20022;-76
2023/03/01 01:06:13;;;;;;;30.27;21.48;;;;;;;;;;5055135;28;20075;-76
2023/03/01 01:08:39;;;;;;;28.65;20.70;;;;;;;;;;5045269;28;20578;-76
2023/03/01 01:11:05;;;;;;;30.80;21.63;;;;;;;;;;5061911;28;20118;-76
2023/03/01 01:13:31;;;;;;;31.77;21.23;;;;;;;;;;5032396;28;20049;-76
2023/03/01 01:16:00;;;;;;;31.05;22.52;;;;;;;;;;5031941;28;20045;-76
2023/03/01 01:18:26;;;;;;;32.83;23.13;;;;;;;;;;5054348;28;20024;-76
2023/03/01 01:20:52;;;;;;;32.05;21.45;;;;;;;;;;5052870;28;20048;-76
2023/03/01 01:23:18;;;;;;;29.90;21.20;;;;;;;;;;5055398;28;20027;-76
2023/03/01 01:25:44;;;;;;;29.42;20.92;;;;;;;;;;5032849;28;20064;-76
2023/03/01 01:28:10;;;;;;;31.40;23.13;;;;;;;;;;5052771;28;20095;-76
2023/03/01 01:30:36;;;;;;;28.27;21.08;;;;;;;;;;5013890;28;20482;-76
2023/03/01 01:33:02;;;;;;;30.33;21.38;;;;;;;;;;5051348;28;20040;-76
2023/03/01 01:35:28;;;;;;;29.75;21.83;;;;;;;;;;5033766;28;20044;-76
2023/03/01 01:37:54;;;;;;;32.40;22.95;;;;;;;;;;5026642;28;20120;-76
2023/03/01 01:40:20;;;;;;;28.15;20.50;;;;;;;;;;5042737;28;20055;-76
2023/03/01 01:42:46;;;;;;;28.88;21.83;;;;;;;;;;5050262;28;20091;-76
2023/03/01 01:45:26;;;;;;;31.75;21.33;;;;;;;;;;5027237;28;20033;-76
2023/03/01 01:47:53;;;;;;;28.90;21.48;;;;;;;;;;5043409;28;20037;-76
2023/03/01 01:50:19;;;;;;;32.90;21.77;;;;;;;;;;5029713;28;20033;-76
2023/03/01 01:52:46;;;;;;;31.13;22.88;;;;;;;;;;5021640;28;20501;-76
2023/03/01 01:55:14;;;;;;;31.48;21.55;;;;;;;;;;5040907;28;20029;-76
2023/03/01 01:57:45;;;;;;;34.83;23.08;;;;;;;;;;5049381;28;20454;-76
2023/03/01 02:00:13;;;;;;;32.08;21.80;;;;;;;;;;5037616;28;20079;-76
2023/03/01 02:02:40;;;;;;;30.75;23.15;;;;;;;;;;5037192;28;20068;-76
2023/03/01 02:05:10;;;;;;;34.63;22.98;;;;;;;;;;5038227;28;20075;-76
2023/03/01 02:07:37;;;;;;;32.08;21.13;;;;;;;;;;5052194;28;20033;-76
2023/03/01 02:10:03;;;;;;;30.05;20.95;;;;;;;;;;5049031;28;20153;-76
2023/03/01 02:12:30;;;;;;;29.98;21.45;;;;;;;;;;5038175;28;20032;-76
2023/03/01 02:14:56;;;;;;;32.85;21.70;;;;;;;;;;5036951;28;20029;-76
2023/03/01 02:17:22;;;;;;;30.05;23.05;;;;;;;;;;5054099;28;20535;-76
2023/03/01 02:19:51;;;;;;;31.27;22.08;;;;;;;;;;5050745;28;20410;-76
2023/03/01 02:22:25;;;;;;;33.30;23.98;;;;;;;;;;5030124;28;20033;-76
2023/03/01 02:24:54;;;;;;;32.28;22.65;;;;;;;;;;5022217;28;20123;-76
2023/03/01 02:27:24;;;;;;;33.08;22.90;;;;;;;;;;5027645;28;20041;-76
2023/03/01 02:29:50;;;;;;;33.65;24.13;;;;;;;;;;5020853;28;20033;-76
2023/03/01 02:32:24;;;;;;;31.95;22.13;;;;;;;;;;5029702;28;20042;-76
2023/03/01 02:34:51;;;;;;;33.13;21.95;;;;;;;;;;5017664;28;20538;-76
2023/03/01 02:37:24;;;;;;;34.85;23.45;;;;;;;;;;5029390;28;20030;-76
2023/03/01 02:39:51;;;;;;;32.22;23.17;;;;;;;;;;5028818;28;20029;-76
2023/03/01 02:42:23;;;;;;;36.00;24.95;;;;;;;;;;5026328;28;20025;-76
2023/03/01 02:44:49;;;;;;;33.05;24.40;;;;;;;;;;5026978;28;20036;-76
2023/03/01 02:47:16;;;;;;;32.50;22.48;;;;;;;;;;5028419;28;20029;-76
2023/03/01 02:49:42;;;;;;;32.63;23.88;;;;;;;;;;5024859;28;20033;-76
2023/03/01 02:52:26;;;;;;;33.80;24.58;;;;;;;;;;5024034;28;20045;-76
2023/03/01 02:55:02;;;;;;;31.17;22.40;;;;;;;;;;5023532;28;20040;-76
2023/03/01 02:57:28;;;;;;;32.50;23.58;;;;;;;;;;5022976;28;20025;-76
2023/03/01 02:59:58;;;;;;;32.80;24.77;;;;;;;;;;5029963;28;20079;-76
2023/03/01 03:02:38;;;;;;;29.65;21.88;;;;;;;;;;5015141;28;20112;-76
2023/03/01 03:05:05;;;;;;;32.22;22.77;;;;;;;;;;5023157;28;20037;-76
2023/03/01 03:07:32;;;;;;;31.10;22.73;;;;;;;;;;5014823;28;20034;-76
2023/03/01 03:09:58;;;;;;;33.42;23.92;;;;;;;;;;5019553;28;20033;-76
2023/03/01 03:12:24;;;;;;;33.70;21.65;;;;;;;;;;5021806;28;20683;-76
2023/03/01 03:14:50;;;;;;;34.70;25.00;;;;;;;;;;5020902;28;20120;-76
2023/03/01 03:17:16;;;;;;;34.50;24.52;;;;;;;;;;5032366;28;20079;-76
2023/03/01 03:19:45;;;;;;;34.45;21.98;;;;;;;;;;5018177;28;20048;-76
2023/03/01 03:22:11;;;;;;;31.98;23.73;;;;;;;;;;5024580;28;20081;-76
2023/03/01 03:24:37;;;;;;;34.20;23.85;;;;;;;;;;5043023;28;20736;-76
2023/03/01 03:27:07;;;;;;;33.63;23.67;;;;;;;;;;5057991;28;20803;-76
2023/03/01 03:29:33;;;;;;;37.60;24.30;;;;;;;;;;5036563;28;20120;-76
2023/03/01 03:31:59;;;;;;;31.83;22.08;;;;;;;;;;5050473;28;20097;-76
2023/03/01 03:34:25;;;;;;;34.95;25.52;;;;;;;;;;5032057;28;20021;-76
2023/03/01 03:36:59;;;;;;;32.40;24.25;;;;;;;;;;5024085;28;20074;-76
2023/03/01 03:39:26;;;;;;;33.15;23.30;;;;;;;;;;5045781;28;20554;-76
2023/03/01 03:41:52;;;;;;;32.17;22.70;;;;;;;;;;5045482;28;20037;-76
2023/03/01 03:44:18;;;;;;;34.05;22.75;;;;;;;;;;5052703;22;20064;-76
2023/03/01 03:46:44;;;;;;;33.97;23.58;;;;;;;;;;5025396;28;20033;-76
2023/03/01 03:49:10;;;;;;;31.00;21.05;;;;;;;;;;5045544;28;20120;-77
2023/03/01 03:51:36;;;;;;;35.42;25.60;;;;;;;;;;5038420;28;20795;-76
2023/03/01 03:54:02;;;;;;;35.08;25.08;;;;;;;;;;5035120;28;21947;-76
2023/03/01 03:56:28;;;;;;;32.58;23.40;;;;;;;;;;5047259;28;20032;-76
2023/03/01 03:58:54;;;;;;;36.22;24.08;;;;;;;;;;5041579;28;20047;-77
2023/03/01 04:01:20;;;;;;;35.28;24.55;;;;;;;;;;5018550;28;20507;-76
2023/03/01 04:03:46;;;;;;;36.92;26.17;;;;;;;;;;5044853;28;20037;-76
2023/03/01 04:06:13;;;;;;;37.05;24.98;;;;;;;;;;5030392;28;20838;-76
2023/03/01 04:08:39;;;;;;;35.40;25.15;;;;;;;;;;5028549;28;20060;-76
2023/03/01 04:13:51;;;;;;;34.92;25.83;;;;;;;;;;5040372;28;20071;-76
2023/03/01 04:16:17;;;;;;;34.00;24.23;;;;;;;;;;5042573;28;20044;-76
2023/03/01 04:18:43;;;;;;;36.00;26.40;;;;;;;;;;5057436;28;20032;-76
2023/03/01 04:21:11;;;;;;;35.13;26.05;;;;;;;;;;5022921;28;20029;-76
2023/03/01 04:23:37;;;;;;;35.53;25.60;;;;;;;;;;5056807;28;20052;-76
2023/03/01 04:26:03;;;;;;;36.38;24.27;;;;;;;;;;5023330;28;20044;-76
2023/03/01 04:28:34;;;;;;;35.30;25.10;;;;;;;;;;5049824;28;20411;-76
2023/03/01 04:31:12;;;;;;;35.70;26.05;;;;;;;;;;5048490;28;20040;-76
2023/03/01 04:33:38;;;;;;;33.95;25.15;;;;;;;;;;5052073;28;20021;-76
2023/03/01 04:36:05;;;;;;;33.63;24.15;;;;;;;;;;5053024;28;20039;-76
2023/03/01 04:38:31;;;;;;;34.75;24.88;;;;;;;;;;5033030;28;20032;-77
2023/03/01 04:40:57;;;;;;;34.45;25.63;;;;;;;;;;5048851;28;20029;-76
2023/03/01 04:43:23;;;;;;;34.10;23.88;;;;;;;;;;5047648;28;20560;-76
2023/03/01 04:45:49;;;;;;;42.05;27.00;;;;;;;;;;5046813;28;20080;-76
2023/03/01 04:48:15;;;;;;;38.60;27.17;;;;;;;;;;5048516;28;20033;-76
2023/03/01 04:50:41;;;;;;;39.75;26.67;;;;;;;;;;5043975;28;20086;-76
2023/03/01 04:53:07;;;;;;;35.20;24.23;;;;;;;;;;5050424;28;20028;-76
2023/03/01 04:55:34;;;;;;;34.90;25.83;;;;;;;;;;5050387;28;20041;-76
2023/03/01 04:58:00;;;;;;;37.33;25.00;;;;;;;;;;5050744;28;20032;-76
2023/03/01 05:00:26;;;;;;;31.08;23.25;;;;;;;;;;5043523;28;20033;-76
2023/03/01 05:03:00;;;;;;;33.80;23.60;;;;;;;;;;5049072;28;20025;-76
2023/03/01 05:05:33;;;;;;;37.58;26.77;;;;;;;;;;5040124;28;20041;-76
2023/03/01 05:08:01;;;;;;;35.78;25.25;;;;;;;;;;5028136;28;20540;-76
2023/03/01 05:10:31;;;;;;;33.30;25.17;;;;;;;;;;5045653;28;20041;-76
2023/03/01 05:12:57;;;;;;;33.33;25.58;;;;;;;;;;5043278;28;20108;-76
2023/03/01 05:15:27;;;;;;;33.88;24.13;;;;;;;;;;5040924;28;20040;-76
2023/03/01 05:17:54;;;;;;;35.42;23.65;;;;;;;;;;5048781;28;20048;-76
2023/03/01 05:20:22;;;;;;;32.10;22.95;;;;;;;;;;5043491;28;20057;-76
2023/03/01 05:22:49;;;;;;;38.70;25.95;;;;;;;;;;5045210;28;20478;-76
2023/03/01 05:25:15;;;;;;;36.38;26.58;;;;;;;;;;5047600;28;20052;-76
2023/03/01 05:27:41;;;;;;;34.50;24.02;;;;;;;;;;5050114;28;20025;-76
2023/03/01 05:30:13;;;;;;;38.90;26.88;;;;;;;;;;5050864;28;20485;-76
2023/03/01 05:32:39;;;;;;;;;;;;;;;;;;5047781;28;20107;-76
2023/03/01 05:35:06;;;;;;;34.47;24.80;;;;;;;;;;5046601;28;20007;-76
2023/03/01 05:37:31;;;;;;;37.13;26.25;;;;;;;;;;5040577;28;20463;-76
2023/03/01 05:39:57;;;;;;;38.42;26.63;;;;;;;;;;5047916;28;20036;-76
2023/03/01 05:42:23;;;;;;;35.30;25.13;;;;;;;;;;5039555;28;20145;-76
2023/03/01 05:44:49;;;;;;;34.83;23.83;;;;;;;;;;5031454;28;20147;-76
2023/03/01 05:47:15;;;;;;;38.03;27.35;;;;;;;;;;5046487;28;20036;-76
2023/03/01 05:49:41;;;;;;;38.17;27.98;;;;;;;;;;5045881;28;20079;-76
2023/03/01 05:52:08;;;;;;;35.38;24.65;;;;;;;;;;5035033;28;20040;-76
2023/03/01 05:54:34;;;;;;;35.78;24.70;;;;;;;;;;5015990;28;20129;-76
2023/03/01 05:57:00;;;;;;;34.75;25.55;;;;;;;;;;5049636;28;20060;-76
2023/03/01 05:59:26;;;;;;;37.13;26.13;;;;;;;;;;5044246;28;20115;-76
2023/03/01 06:01:52;;;;;;;36.13;25.80;;;;;;;;;;5030126;28;20034;-76
2023/03/01 06:04:18;;;;;;;38.72;26.77;;;;;;;;;;5049327;28;20047;-76
2023/03/01 06:06:44;;;;;;;39.40;27.17;;;;;;;;;;5046365;28;20044;-76
2023/03/01 06:09:10;;;;;;;37.83;27.95;;;;;;;;;;5031598;28;20094;-76
2023/03/01 06:11:37;;;;;;;39.00;27.67;;;;;;;;;;5047777;28;20036;-77
2023/03/01 06:14:03;;;;;;;43.25;29.48;;;;;;;;;;5049793;28;20041;-76
2023/03/01 06:16:29;;;;;;;35.63;25.08;;;;;;;;;;5041524;28;20052;-76
2023/03/01 06:18:55;;;;;;;38.13;25.10;;;;;;;;;;5037630;28;20139;-77
2023/03/01 06:21:21;;;;;;;38.65;25.08;;;;;;;;;;5048436;28;20028;-75
2023/03/01 06:23:47;;;;;;;39.88;28.20;;;;;;;;;;5046949;28;20037;-76
2023/03/01 06:26:13;;;;;;;37.75;25.75;;;;;;;;;;5041487;28;20057;-75
2023/03/01 06:28:39;;;;;;;43.38;28.63;;;;;;;;;;5040129;28;20038;-76
2023/03/01 06:31:08;;;;;;;46.30;29.27;;;;;;;;;;5043455;28;20041;-76
2023/03/01 06:33:34;;;;;;;41.42;26.95;;;;;;;;;;5038093;28;20487;-76
2023/03/01 06:36:00;;;;;;;38.75;24.73;;;;;;;;;;5038210;28;20542;-76
2023/03/01 06:38:26;;;;;;;34.72;24.77;;;;;;;;;;5047100;28;20107;-76
2023/03/01 06:40:53;;;;;;;36.83;27.05;;;;;;;;;;5046130;28;20037;-76
2023/03/01 06:43:19;;;;;;;36.95;24.98;;;;;;;;;;5043851;28;20025;-76
2023/03/01 06:45:46;;;;;;;36.65;24.55;;;;;;;;;;5043234;28;20061;-76
2023/03/01 06:48:12;;;;;;;36.42;25.42;;;;;;;;;;5044691;28;20055;-76
2023/03/01 06:50:38;;;;;;;35.15;25.73;;;;;;;;;;5029859;28;20558;-76
2023/03/01 06:53:04;;;;;;;38.88;27.38;;;;;;;;;;5046917;28;20123;-76
2023/03/01 06:55:30;;;;;;;37.33;26.95;;;;;;;;;;5028952;28;20040;-76
2023/03/01 06:57:57;;;;;;;38.20;27.40;;;;;;;;;;5041469;28;20028;-76
2023/03/01 07:00:23;;;;;;;38.03;25.35;;;;;;;;;;5049761;28;20534;-77
2023/03/01 07:02:49;;;;;;;37.03;25.92;;;;;;;;;;5044310;28;20049;-76
2023/03/01 07:05:15;;;;;;;39.75;26.60;;;;;;;;;;5047854;28;20064;-76
2023/03/01 07:07:41;;;;;;;37.88;26.75;;;;;;;;;;5048459;28;20808;-76
2023/03/01 07:10:08;;;;;;;43.13;29.92;;;;;;;;;;5048532;28;20041;-76
2023/03/01 07:12:34;;;;;;;45.40;31.33;;;;;;;;;;5026918;28;20065;-76
2023/03/01 07:15:00;;;;;;;41.97;28.55;;;;;;;;;;5048656;28;20069;-76
2023/03/01 07:17:26;;;;;;;40.63;26.23;;;;;;;;;;5047617;28;20132;-76
2023/03/01 07:19:52;;;;;;;40.08;28.42;;;;;;;;;;5046331;28;20037;-76
2023/03/01 07:22:18;;;;;;;42.63;28.63;;;;;;;;;;5043697;28;20040;-76
2023/03/01 07:24:44;;;;;;;42.92;26.80;;;;;;;;;;5044091;28;20140;-76
2023/03/01 07:27:10;;;;;;;39.90;27.02;;;;;;;;;;5035830;28;20107;-77
2023/03/01 07:29:36;;;;;;;43.20;29.40;;;;;;;;;;5041624;28;20041;-76
2023/03/01 07:32:02;;;;;;;41.60;29.00;;;;;;;;;;5047117;28;20064;-77
2023/03/01 07:34:28;;;;;;;39.67;25.60;;;;;;;;;;5044399;28;20037;-76
2023/03/01 07:36:55;;;;;;;43.35;27.38;;;;;;;;;;5043608;28;20028;-77
2023/03/01 07:39:22;;;;;;;44.90;29.85;;;;;;;;;;5046901;28;20036;-76
2023/03/01 07:41:49;;;;;;;38.90;27.02;;;;;;;;;;5048443;28;20027;-76
2023/03/01 07:44:16;;;;;;;39.22;27.58;;;;;;;;;;5047724;28;20144;-76
2023/03/01 07:46:42;;;;;;;36.67;26.30;;;;;;;;;;5029694;28;20033;-76
2023/03/01 07:49:08;;;;;;;38.63;26.42;;;;;;;;;;5048210;28;20036;-77
2023/03/01 07:51:34;;;;;;;38.70;24.80;;;;;;;;;;5044352;28;20071;-76
2023/03/01 07:54:00;;;;;;;41.13;27.95;;;;;;;;;;5041561;28;20061;-76
2023/03/01 07:56:26;;;;;;;38.33;26.58;;;;;;;;;;5046952;28;20068;-75
2023/03/01 07:58:52;;;;;;;46.03;29.40;;;;;;;;;;5053390;28;20033;-77
2023/03/01 08:01:20;;;;;;;40.70;26.02;;;;;;;;;;5051411;28;20029;-76
2023/03/01 08:03:46;;;;;;;41.72;26.83;;;;;;;;;;5050562;28;20040;-77
2023/03/01 08:06:13;;;;;;;40.38;27.48;;;;;;;;;;5050470;28;20033;-76
2023/03/01 08:08:39;;;;;;;39.22;27.60;;;;;;;;;;5050290;28;20028;-76
2023/03/01 08:11:06;;;;;;;34.55;24.75;;;;;;;;;;5052025;28;20040;-76
2023/03/01 08:13:32;;;;;;;37.65;27.10;;;;;;;;;;5048995;28;20040;-75
2023/03/01 08:16:06;;;;;;;38.30;27.63;;;;;;;;;;5030071;28;20861;-74
2023/03/01 08:18:32;;;;;;;34.03;24.23;;;;;;;;;;5047347;28;20036;-76
2023/03/01 08:21:05;;;;;;;33.33;22.00;;;;;;;;;;5032253;28;20028;-75
2023/03/01 08:23:31;;;;;;;33.88;23.45;;;;;;;;;;5049464;28;20548;-76
2023/03/01 08:26:03;;;;;;;32.97;22.75;;;;;;;;;;5052488;28;20111;-76
2023/03/01 08:28:29;;;;;;;31.63;21.25;;;;;;;;;;5043663;28;20135;-76
2023/03/01 08:30:55;;;;;;;32.83;23.70;;;;;;;;;;5033994;28;20457;-76
2023/03/01 08:33:21;;;;;;;30.77;21.23;;;;;;;;;;5042965;28;20037;-76
2023/03/01 08:35:47;;;;;;;33.17;23.50;;;;;;;;;;5048788;28;20068;-76
2023/03/01 08:38:13;;;;;;;34.35;23.45;;;;;;;;;;5044737;28;20021;-76
2023/03/01 08:40:39;;;;;;;36.53;21.02;;;;;;;;;;5050786;28;20378;-76
2023/03/01 08:43:05;;;;;;;33.35;22.50;;;;;;;;;;5050367;28;20025;-77
2023/03/01 08:45:31;;;;;;;28.90;21.15;;;;;;;;;;5050482;28;20072;-76
2023/03/01 08:47:57;;;;;;;33.47;22.55;;;;;;;;;;5050709;28;20033;-77
2023/03/01 08:50:24;;;;;;;33.85;23.42;;;;;;;;;;5048940;28;20096;-76
2023/03/01 08:52:50;;;;;;;33.00;23.55;;;;;;;;;;5048322;28;20029;-76
2023/03/01 08:55:17;;;;;;;36.22;25.42;;;;;;;;;;5051280;28;20049;-77
2023/03/01 08:57:43;;;;;;;33.05;23.17;;;;;;;;;;5032518;28;20025;-76
2023/03/01 09:00:11;;;;;;;30.48;23.08;;;;;;;;;;5050399;28;20059;-77
2023/03/01 09:02:38;;;;;;;36.75;23.65;;;;;;;;;;5047204;28;20409;-76
2023/03/01 09:05:04;;;;;;;33.60;24.75;;;;;;;;;;5044579;28;20042;-76
2023/03/01 09:07:30;;;;;;;40.08;25.95;;;;;;;;;;5049799;28;20024;-76
2023/03/01 09:09:56;;;;;;;32.72;22.83;;;;;;;;;;5050381;28;20052;-76
2023/03/01 09:12:24;;;;;;;33.53;22.75;;;;;;;;;;5045785;28;20498;-76
2023/03/01 09:14:50;;;;;;;35.53;23.70;;;;;;;;;;5046417;28;20058;-76
2023/03/01 09:17:16;;;;;;;31.38;23.58;;;;;;;;;;5047490;28;20394;-76
2023/03/01 09:19:42;;;;;;;36.78;22.77;;;;;;;;;;5028863;28;20064;-76
2023/03/01 09:22:08;;;;;;;32.45;23.98;;;;;;;;;;5049730;28;20029;-76
2023/03/01 09:24:34;;;;;;;34.60;22.95;;;;;;;;;;5049717;28;20249;-76
2023/03/01 09:27:01;;;;;;;32.38;22.08;;;;;;;;;;5048234;28;20223;-76
2023/03/01 09:29:27;;;;;;;31.70;22.90;;;;;;;;;;5049047;28;21126;-76
2023/03/01 09:31:54;;;;;;;32.50;23.13;;;;;;;;;;5048083;28;20036;-77
2023/03/01 09:34:23;;;;;;;36.33;23.90;;;;;;;;;;5050410;28;20102;-76
2023/03/01 09:36:49;;;;;;;39.25;25.13;;;;;;;;;;5042012;28;20021;-76
2023/03/01 09:39:15;;;;;;;34.42;23.80;;;;;;;;;;5050466;28;20037;-76
2023/03/01 09:41:50;;;;;;;32.85;22.83;;;;;;;;;;5048963;28;20074;-76
2023/03/01 09:44:35;;;;;;;31.67;22.45;;;;;;;;;;5043187;28;20184;-76
2023/03/01 09:47:02;;;;;;;32.53;22.08;;;;;;;;;;5047230;28;20925;-76
2023/03/01 09:49:30;;;;;;;33.10;23.42;;;;;;;;;;5046254;28;20124;-76
2023/03/01 09:52:15;;;;;;;38.35;25.17;;;;;;;;;;5050321;28;20041;-77
2023/03/01 09:54:41;;;;;;;31.35;22.33;;;;;;;;;;5047317;28;20120;-77
2023/03/01 09:57:07;;;;;;;35.70;23.70;;;;;;;;;;5048365;28;20787;-76
2023/03/01 09:59:33;;;;;;;36.83;23.38;;;;;;;;;;5043887;28;20039;-76
2023/03/01 10:02:21;;;;;;;32.65;23.30;;;;;;;;;;5045875;28;20031;-76
2023/03/01 10:04:48;;;;;;;33.67;21.83;;;;;;;;;;5045139;28;20124;-76
2023/03/01 10:07:20;;;;;;;32.58;23.67;;;;;;;;;;5048590;28;20035;-76
2023/03/01 10:09:47;;;;;;;33.47;23.38;;;;;;;;;;5046435;28;20041;-76
2023/03/01 10:12:15;;;;;;;33.72;23.92;;;;;;;;;;5043795;28;20386;-76
2023/03/01 10:14:46;;;;;;;35.53;24.55;;;;;;;;;;5045105;28;20550;-76
2023/03/01 10:17:16;;;;;;;35.67;25.17;;;;;;;;;;5049344;28;20021;-76
2023/03/01 10:19:43;;;;;;;29.02;20.92;;;;;;;;;;5047229;28;20426;-76
2023/03/01 10:22:22;;;;;;;31.48;22.80;;;;;;;;;;5025826;28;20040;-76
2023/03/01 10:24:49;;;;;;;32.42;23.00;;;;;;;;;;5048191;28;20033;-76
2023/03/01 10:27:15;;;;;;;36.60;24.73;;;;;;;;;;5045306;28;20051;-76
2023/03/01 10:29:57;;;;;;;33.08;23.58;;;;;;;;;;5048983;28;20036;-76
2023/03/01 10:32:23;;;;;;;33.30;24.17;;;;;;;;;;5043933;28;20219;-76
2023/03/01 10:34:49;;;;;;;34.88;22.48;;;;;;;;;;5028909;28;20139;-77
2023/03/01 10:37:18;;;;;;;36.63;23.80;;;;;;;;;;5048820;28;20057;-76
2023/03/01 10:39:58;;;;;;;33.45;24.27;;;;;;;;;;5047163;28;20246;-76
2023/03/01 10:42:36;;;;;;;34.53;22.48;;;;;;;;;;5044743;28;20029;-76
2023/03/01 10:45:18;;;;;;;30.73;22.27;;;;;;;;;;5048848;28;20053;-76
2023/03/01 10:47:44;;;;;;;31.92;20.95;;;;;;;;;;5048414;28;20087;-76
2023/03/01 10:50:20;;;;;;;33.00;24.17;;;;;;;;;;5048401;28;20039;-76
2023/03/01 10:52:57;;;;;;;31.30;22.25;;;;;;;;;;5022041;28;20065;-76
2023/03/01 10:55:23;;;;;;;32.53;23.48;;;;;;;;;;5020079;28;20037;-76
2023/03/01 10:57:50;;;;;;;30.88;23.50;;;;;;;;;;5026640;28;20037;-76
2023/03/01 11:00:25;;;;;;;34.00;22.02;;;;;;;;;;5027123;28;20026;-76
2023/03/01 11:03:10;;;;;;;32.75;22.50;;;;;;;;;;5027094;28;20413;-77
2023/03/01 11:05:36;;;;;;;31.60;21.25;;;;;;;;;;5025728;28;20030;-76
2023/03/01 11:08:03;;;;;;;29.95;21.27;;;;;;;;;;5028723;28;20857;-76
2023/03/01 11:10:29;;;;;;;31.30;23.20;;;;;;;;;;5028364;28;20033;-76
2023/03/01 11:13:06;;;;;;;32.08;22.45;;;;;;;;;;5027933;28;20503;-76
2023/03/01 11:15:32;;;;;;;35.22;22.98;;;;;;;;;;5024195;28;20057;-75
2023/03/01 11:17:58;;;;;;;37.40;24.25;;;;;;;;;;5025764;28;20068;-76
2023/03/01 11:20:26;;;;;;;31.75;23.02;;;;;;;;;;5024863;28;20033;-76
2023/03/01 11:23:18;;;;;;;36.45;25.30;;;;;;;;;;5024711;28;20514;-76
2023/03/01 11:25:48;;;;;;;35.20;23.85;;;;;;;;;;5022669;28;20529;-76
2023/03/01 11:28:16;;;;;;;39.45;25.05;;;;;;;;;;5023345;28;20120;-76
2023/03/01 11:30:48;;;;;;;35.95;25.60;;;;;;;;;;5022864;28;20112;-76
2023/03/01 11:33:33;;;;;;;35.67;23.17;;;;;;;;;;5023738;28;20033;-76
2023/03/01 11:36:06;;;;;;;34.92;23.80;;;;;;;;;;5020616;28;20037;-76
2023/03/01 11:38:34;;;;;;;36.25;24.50;;;;;;;;;;5023791;28;20056;-76
2023/03/01 11:41:08;;;;;;;34.08;24.85;;;;;;;;;;5027136;28;20060;-76
2023/03/01 11:43:34;;;;;;;37.30;25.48;;;;;;;;;;5023598;28;20048;-76
2023/03/01 11:46:17;;;;;;;34.58;23.58;;;;;;;;;;5027022;28;20145;-76
2023/03/01 11:49:02;;;;;;;32.97;22.90;;;;;;;;;;5019603;28;20053;-76
2023/03/01 11:51:38;;;;;;;40.78;26.80;;;;;;;;;;5026891;28;20044;-76
2023/03/01 11:54:19;;;;;;;32.58;22.35;;;;;;;;;;5020500;28;20067;-76
2023/03/01 11:56:53;;;;;;;34.35;23.38;;;;;;;;;;5027048;28;20374;-76
2023/03/01 11:59:25;;;;;;;33.60;23.13;;;;;;;;;;5028580;28;20391;-76
2023/03/01 12:02:00;;;;;;;31.98;24.00;;;;;;;;;;5022321;28;20036;-76
2023/03/01 12:04:45;;;;;;;34.92;23.33;;;;;;;;;;5021802;28;20084;-76
2023/03/01 12:07:29;;;;;;;35.15;24.30;;;;;;;;;;5024880;28;20063;-76
2023/03/01 12:10:14;;;;;;;33.63;23.38;;;;;;;;;;5026106;28;20064;-75
2023/03/01 12:12:43;;;;;;;37.40;24.20;;;;;;;;;;5018145;28;20049;-76
2023/03/01 12:15:23;;;;;;;35.10;25.27;;;;;;;;;;5023125;28;20037;-76
2023/03/01 12:18:03;;;;;;;36.97;25.20;;;;;;;;;;5027056;28;20032;-76
2023/03/01 12:20:41;;;;;;;36.67;23.83;;;;;;;;;;5018258;28;20069;-76
2023/03/01 12:23:10;;;;;;;35.35;23.58;;;;;;;;;;5021359;28;20452;-76
2023/03/01 12:25:40;;;;;;;37.55;25.90;;;;;;;;;;5027351;28;20065;-76
2023/03/01 12:28:06;;;;;;;40.08;26.80;;;;;;;;;;5027581;28;20060;-76
2023/03/01 12:30:38;;;;;;;35.33;22.75;;;;;;;;;;5027871;28;20768;-76
2023/03/01 12:33:10;;;;;;;38.28;22.67;;;;;;;;;;5027496;28;20094;-76
2023/03/01 12:35:41;;;;;;;32.65;23.15;;;;;;;;;;5025398;28;20033;-76
2023/03/01 12:38:13;;;;;;;32.88;22.15;;;;;;;;;;5028866;28;20033;-76
2023/03/01 12:40:39;;;;;;;31.45;22.95;;;;;;;;;;5026063;28;20041;-76
2023/03/01 12:43:24;;;;;;;38.72;25.08;;;;;;;;;;5031565;28;20029;-77
2023/03/01 12:45:55;;;;;;;38.72;23.75;;;;;;;;;;5029884;28;20042;-77
2023/03/01 12:48:28;;;;;;;39.58;25.58;;;;;;;;;;5021887;28;20103;-76
2023/03/01 12:50:56;;;;;;;32.70;22.00;;;;;;;;;;5027714;28;20043;-76
2023/03/01 12:53:42;;;;;;;37.85;24.23;;;;;;;;;;5032063;28;20049;-76
2023/03/01 12:56:18;;;;;;;35.65;24.83;;;;;;;;;;5029596;28;20046;-76
2023/03/01 12:59:00;;;;;;;37.75;24.35;;;;;;;;;;5019695;28;20519;-76
2023/03/01 13:01:45;;;;;;;39.88;26.30;;;;;;;;;;5026887;28;20655;-77
2023/03/01 13:04:13;;;;;;;37.70;24.98;;;;;;;;;;5028067;28;20049;-77
2023/03/01 13:06:49;;;;;;;32.60;22.38;;;;;;;;;;5031682;28;20858;-77
2023/03/01 13:09:18;;;;;;;35.38;24.63;;;;;;;;;;5026734;28;20283;-76
2023/03/01 13:11:44;;;;;;;35.70;23.98;;;;;;;;;;5031307;28;20045;-77
2023/03/01 13:14:25;;;;;;;38.45;25.02;;;;;;;;;;5031384;28;20037;-76
2023/03/01 13:16:52;;;;;;;42.63;26.00;;;;;;;;;;5028627;28;20044;-76
2023/03/01 13:19:19;;;;;;;36.47;23.77;;;;;;;;;;5018689;28;20030;-77
2023/03/01 13:21:46;;;;;;;32.92;22.20;;;;;;;;;;5031318;28;20037;-76
2023/03/01 13:24:31;;;;;;;38.42;23.42;;;;;;;;;;5030157;28;20032;-76
2023/03/01 13:27:06;;;;;;;39.70;24.25;;;;;;;;;;5026869;28;20513;-76
2023/03/01 13:30:07;;;;;;;36.30;24.10;;;;;;;;;;5026783;28;20033;-75
2023/03/01 13:35:43;;;;;;;36.33;24.50;;;;;;;;;;5026418;28;20123;-75
2023/03/01 13:38:29;;;;;;;33.75;24.88;;;;;;;;;;5031137;28;20046;-75
2023/03/01 13:40:55;;;;;;;39.15;26.10;;;;;;;;;;5021186;28;20050;-74
2023/03/01 13:43:47;;;;;;;38.65;24.88;;;;;;;;;;5029166;28;20105;-75
2023/03/01 13:46:24;;;;;;;37.35;23.15;;;;;;;;;;5025558;28;20068;-77
2023/03/01 13:48:55;;;;;;;37.25;24.30;;;;;;;;;;5020217;28;20467;-77
2023/03/01 13:51:26;;;;;;;34.38;24.67;;;;;;;;;;5022626;28;20048;-78
2023/03/01 13:53:53;;;;;;;35.22;23.85;;;;;;;;;;5030253;28;20045;-74
2023/03/01 13:56:25;;;;;;;40.55;25.30;;;;;;;;;;5022106;28;20112;-77
2023/03/01 13:58:56;;;;;;;36.85;24.10;;;;;;;;;;5021924;28;20044;-76
2023/03/01 14:01:24;;;;;;;37.67;25.40;;;;;;;;;;5028705;28;20040;-74
2023/03/01 14:03:50;;;;;;;35.47;21.98;;;;;;;;;;5019191;28;20038;-77
2023/03/01 14:06:17;;;;;;;37.45;25.13;;;;;;;;;;5026884;28;20492;-76
2023/03/01 14:08:44;;;;;;;36.50;23.33;;;;;;;;;;5021971;28;20088;-76
2023/03/01 14:11:10;;;;;;;45.45;25.35;;;;;;;;;;5029682;28;20368;-76
2023/03/01 14:13:56;;;;;;;40.25;24.13;;;;;;;;;;5029893;28;20048;-76
2023/03/01 14:16:47;;;;;;;39.75;26.90;;;;;;;;;;5024952;28;20029;-76
2023/03/01 14:19:24;;;;;;;36.65;22.80;;;;;;;;;;5021184;28;20083;-76
2023/03/01 14:22:02;;;;;;;34.78;23.73;;;;;;;;;;5022669;28;20021;-76
2023/03/01 14:24:28;;;;;;;35.45;23.63;;;;;;;;;;5029227;28;20893;-76
2023/03/01 14:26:54;;;;;;;36.60;25.55;;;;;;;;;;5029341;28;20382;-76
2023/03/01 14:29:27;;;;;;;38.20;24.70;;;;;;;;;;5028452;28;20426;-76
2023/03/01 14:31:53;;;;;;;34.88;25.35;;;;;;;;;;5027270;28;20100;-76
2023/03/01 14:34:25;;;;;;;40.50;25.25;;;;;;;;;;5021366;28;20053;-76